createdAt,value
2023-02-13T00:00:38.303Z,-0.62
2023-02-13T00:03:05.176Z,-0.71
2023-02-13T00:05:31.714Z,-0.84
2023-02-13T00:07:58.177Z,-0.58
2023-02-13T00:10:25.049Z,-0.66
2023-02-13T00:12:51.543Z,-0.49
2023-02-13T00:15:18.064Z,-0.54
2023-02-13T00:17:44.512Z,-0.76
2023-02-13T00:20:11.568Z,-0.61
2023-02-13T00:22:38.382Z,-0.79
2023-02-13T00:25:05.787Z,-0.68
2023-02-13T00:27:32.277Z,-0.62
2023-02-13T00:29:59.392Z,-0.79
2023-02-13T00:32:25.961Z,-0.85
2023-02-13T00:34:54.608Z,-0.71
2023-02-13T00:37:21.083Z,-0.73
2023-02-13T00:39:47.512Z,-0.82
2023-02-13T00:42:14.184Z,-0.75
2023-02-13T00:44:44.087Z,-0.75
2023-02-13T00:47:14.572Z,-0.83
2023-02-13T00:49:41.562Z,-0.96
2023-02-13T00:52:08.071Z,-0.78
2023-02-13T00:54:34.510Z,-0.86
2023-02-13T00:57:01.021Z,-0.83
2023-02-13T00:59:27.661Z,-0.99
2023-02-13T01:01:54.174Z,-1.28
2023-02-13T01:04:20.672Z,-1.16
2023-02-13T01:06:47.174Z,-1.14
2023-02-13T01:09:13.643Z,-1.11
2023-02-13T01:11:40.131Z,-0.85
2023-02-13T01:14:06.843Z,-0.97
2023-02-13T01:16:33.359Z,-0.98
2023-02-13T01:18:59.848Z,-1.13
2023-02-13T01:21:26.338Z,-1.23
2023-02-13T01:23:53.208Z,-1.36
2023-02-13T01:26:21.280Z,-1.37
2023-02-13T01:28:52.450Z,-1.29
2023-02-13T01:31:18.950Z,-1.17
2023-02-13T01:33:45.803Z,-1.16
2023-02-13T01:36:14.210Z,-1.23
2023-02-13T01:38:40.811Z,-1.32
2023-02-13T01:41:07.946Z,-1.49
2023-02-13T01:43:44.678Z,-1.40
2023-02-13T01:46:12.086Z,-1.38
2023-02-13T01:48:38.556Z,-1.40
2023-02-13T01:51:07.885Z,-1.51
2023-02-13T01:53:40.389Z,-1.59
2023-02-13T01:56:13.333Z,-1.59
2023-02-13T01:58:42.532Z,-1.51
2023-02-13T02:01:09.636Z,-1.46
2023-02-13T02:03:38.177Z,-1.52
2023-02-13T02:06:12.001Z,-1.50
2023-02-13T02:08:39.126Z,-1.48
2023-02-13T02:11:08.511Z,-1.64
2023-02-13T02:13:35.112Z,-1.58
2023-02-13T02:16:07.154Z,-1.45
2023-02-13T02:18:33.618Z,-1.49
2023-02-13T02:21:09.433Z,-1.41
2023-02-13T02:23:38.997Z,-1.40
2023-02-13T02:26:24.027Z,-1.50
2023-02-13T02:28:50.513Z,-1.48
2023-02-13T02:31:17.189Z,-1.43
2023-02-13T02:34:02.324Z,-1.70
2023-02-13T02:37:01.136Z,-1.76
2023-02-13T02:39:48.957Z,-1.61
2023-02-13T02:42:17.555Z,-1.90
2023-02-13T02:45:02.938Z,-1.93
2023-02-13T02:47:48.122Z,-1.80
2023-02-13T02:50:22.436Z,-1.78
2023-02-13T02:52:56.689Z,-1.84
2023-02-13T02:55:51.239Z,-1.82
2023-02-13T02:58:42.482Z,-1.75
2023-02-13T03:01:31.434Z,-1.84
2023-02-13T03:04:18.479Z,-1.79
2023-02-13T03:06:48.349Z,-1.81
2023-02-13T03:09:45.763Z,-1.79
2023-02-13T03:12:34.345Z,-1.91
2023-02-13T03:15:00.790Z,-1.90
2023-02-13T03:17:45.653Z,-1.67
2023-02-13T03:20:33.929Z,-1.88
2023-02-13T03:23:06.559Z,-1.90
2023-02-13T03:25:50.548Z,-1.82
2023-02-13T03:28:35.728Z,-1.75
2023-02-13T03:31:05.413Z,-1.66
2023-02-13T03:33:40.713Z,-1.82
2023-02-13T03:36:25.883Z,-1.90
2023-02-13T03:38:57.312Z,-1.85
2023-02-13T03:41:27.669Z,-1.71
2023-02-13T03:44:10.996Z,-1.75
2023-02-13T03:46:39.687Z,-1.70
2023-02-13T03:49:25.877Z,-1.66
2023-02-13T03:51:52.314Z,-1.66
2023-02-13T03:54:53.263Z,-1.60
2023-02-13T03:57:39.677Z,-1.64
2023-02-13T04:00:09.786Z,-1.58
2023-02-13T04:02:48.136Z,-1.68
2023-02-13T04:05:17.244Z,-1.71
2023-02-13T04:07:43.757Z,-1.69
2023-02-13T04:10:12.070Z,-1.91
2023-02-13T04:12:57.138Z,-1.91
2023-02-13T04:15:42.272Z,-1.89
2023-02-13T04:18:11.477Z,-1.93
2023-02-13T04:20:38.313Z,-1.94
2023-02-13T04:23:09.575Z,-2.05
2023-02-13T04:25:37.736Z,-2.15
2023-02-13T04:28:04.304Z,-2.08
2023-02-13T04:30:30.862Z,-2.05
2023-02-13T04:32:57.368Z,-2.23
2023-02-13T04:35:23.993Z,-2.33
2023-02-13T04:37:50.426Z,-2.40
2023-02-13T04:40:16.988Z,-2.22
2023-02-13T04:42:43.515Z,-2.17
2023-02-13T04:45:10.062Z,-2.30
2023-02-13T04:47:36.497Z,-2.26
2023-02-13T04:50:03.068Z,-2.20
2023-02-13T04:52:29.535Z,-2.14
2023-02-13T04:54:55.953Z,-2.19
2023-02-13T04:57:22.392Z,-2.33
2023-02-13T04:59:48.831Z,-2.22
2023-02-13T05:02:15.364Z,-2.23
2023-02-13T05:04:41.833Z,-2.25
2023-02-13T05:07:08.443Z,-2.22
2023-02-13T05:09:34.925Z,-2.21
2023-02-13T05:12:01.888Z,-2.08
2023-02-13T05:14:28.432Z,-2.08
2023-02-13T05:16:54.936Z,-2.23
2023-02-13T05:19:21.397Z,-2.18
2023-02-13T05:22:06.730Z,-2.21
2023-02-13T05:24:33.226Z,-2.40
2023-02-13T05:26:59.685Z,-2.52
2023-02-13T05:29:26.270Z,-2.34
2023-02-13T05:31:54.224Z,-2.40
2023-02-13T05:34:21.571Z,-2.20
2023-02-13T05:36:48.042Z,-2.26
2023-02-13T05:39:15.337Z,-2.36
2023-02-13T05:41:42.754Z,-2.26
2023-02-13T05:44:09.241Z,-2.21
2023-02-13T05:46:38.969Z,-2.34
2023-02-13T05:49:05.620Z,-2.28
2023-02-13T05:51:32.085Z,-2.20
2023-02-13T05:53:58.765Z,-2.20
2023-02-13T05:56:25.263Z,-2.26
2023-02-13T05:58:52.823Z,-2.02
2023-02-13T06:01:19.764Z,-2.06
2023-02-13T06:03:46.314Z,-2.20
2023-02-13T06:06:13.031Z,-2.33
2023-02-13T06:08:39.474Z,-2.46
2023-02-13T06:11:05.985Z,-2.23
2023-02-13T06:13:32.447Z,-2.33
2023-02-13T06:15:58.940Z,-2.26
2023-02-13T06:18:25.485Z,-2.30
2023-02-13T06:20:51.947Z,-2.20
2023-02-13T06:23:18.456Z,-1.77
2023-02-13T06:25:44.895Z,-1.82
2023-02-13T06:28:11.505Z,-1.65
2023-02-13T06:30:38.049Z,-1.81
2023-02-13T06:33:04.697Z,-1.55
2023-02-13T06:35:31.151Z,-1.37
2023-02-13T06:37:57.633Z,-1.17
2023-02-13T06:40:24.139Z,-0.54
2023-02-13T06:42:50.628Z,-0.12
2023-02-13T06:45:17.102Z,-0.70
2023-02-13T06:47:43.923Z,-0.73
2023-02-13T06:50:12.516Z,-0.48
2023-02-13T06:52:38.990Z,-0.74
2023-02-13T06:55:05.936Z,-0.36
2023-02-13T06:57:33.222Z,-0.26
2023-02-13T07:00:00.522Z,0.08
2023-02-13T07:02:27.025Z,0.31
2023-02-13T07:04:53.564Z,0.54
2023-02-13T07:07:20.055Z,0.87
2023-02-13T07:09:46.490Z,1.08
2023-02-13T07:12:12.917Z,1.58
2023-02-13T07:14:39.353Z,2.09
2023-02-13T07:17:05.916Z,2.37
2023-02-13T07:19:32.456Z,2.87
2023-02-13T07:21:58.900Z,3.22
2023-02-13T07:24:25.702Z,3.46
2023-02-13T07:26:52.381Z,3.83
2023-02-13T07:29:18.803Z,4.31
2023-02-13T07:31:45.326Z,4.81
2023-02-13T07:34:11.812Z,5.10
2023-02-13T07:36:38.251Z,5.01
2023-02-13T07:39:05.046Z,5.50
2023-02-13T07:41:31.592Z,5.61
2023-02-13T07:43:58.096Z,6.02
2023-02-13T07:46:24.558Z,5.86
2023-02-13T07:48:54.511Z,7.09
2023-02-13T07:51:25.162Z,7.55
2023-02-13T07:53:52.516Z,8.00
2023-02-13T07:56:18.987Z,7.39
2023-02-13T07:58:45.489Z,7.73
2023-02-13T08:01:13.839Z,8.41
2023-02-13T08:03:40.601Z,8.41
2023-02-13T08:06:07.601Z,8.27
2023-02-13T08:08:34.604Z,8.42
2023-02-13T08:11:26.030Z,7.99
2023-02-13T08:13:52.713Z,6.33
2023-02-13T08:16:19.353Z,6.11
2023-02-13T08:18:45.887Z,5.71
2023-02-13T08:21:12.429Z,6.39
2023-02-13T08:23:38.981Z,6.47
2023-02-13T08:26:05.412Z,6.40
2023-02-13T08:28:31.928Z,6.83
2023-02-13T08:30:58.458Z,7.44
2023-02-13T08:33:25.063Z,7.51
2023-02-13T08:35:51.508Z,7.44
2023-02-13T08:38:17.985Z,6.81
2023-02-13T08:40:44.448Z,7.25
2023-02-13T08:43:10.894Z,8.89
2023-02-13T08:45:37.557Z,8.42
2023-02-13T08:48:04.224Z,8.02
2023-02-13T08:50:31.030Z,8.64
2023-02-13T08:52:58.185Z,8.54
2023-02-13T08:55:24.758Z,8.62
2023-02-13T08:57:51.259Z,9.01
2023-02-13T09:00:17.803Z,8.23
2023-02-13T09:02:44.269Z,8.67
2023-02-13T09:05:10.806Z,8.80
2023-02-13T09:07:37.334Z,8.05
2023-02-13T09:10:03.908Z,9.21
2023-02-13T09:12:30.340Z,10.36
2023-02-13T09:14:56.939Z,10.57
2023-02-13T09:17:23.363Z,10.66
2023-02-13T09:19:49.840Z,10.28
2023-02-13T09:22:17.308Z,9.79
2023-02-13T09:24:43.796Z,9.85
2023-02-13T09:27:10.259Z,10.36
2023-02-13T09:29:36.816Z,10.17
2023-02-13T09:32:04.504Z,9.41
2023-02-13T09:34:31.033Z,10.05
2023-02-13T09:36:57.484Z,8.82
2023-02-13T09:39:23.998Z,9.66
2023-02-13T09:41:52.611Z,9.75
2023-02-13T09:44:34.434Z,9.36
2023-02-13T09:47:14.944Z,10.89
2023-02-13T09:49:43.346Z,10.39
2023-02-13T09:52:10.081Z,10.79
2023-02-13T09:54:36.582Z,11.25
2023-02-13T09:57:08.008Z,11.41
2023-02-13T09:59:43.987Z,11.09
2023-02-13T10:02:29.341Z,10.95
2023-02-13T10:05:01.833Z,11.08
2023-02-13T10:07:37.496Z,11.80
2023-02-13T10:10:24.236Z,11.75
2023-02-13T10:12:56.195Z,11.02
2023-02-13T10:15:41.536Z,10.62
2023-02-13T10:18:14.526Z,10.85
2023-02-13T10:20:56.747Z,11.08
2023-02-13T10:23:35.495Z,11.42
2023-02-13T10:26:04.194Z,11.51
2023-02-13T10:28:33.716Z,11.07
2023-02-13T10:31:05.277Z,11.39
2023-02-13T10:33:31.792Z,11.04
2023-02-13T10:36:03.115Z,11.75
2023-02-13T10:38:31.666Z,11.49
2023-02-13T10:41:06.542Z,10.92
2023-02-13T10:43:39.887Z,11.85
2023-02-13T10:46:15.725Z,11.79
2023-02-13T10:48:50.619Z,11.99
2023-02-13T10:51:35.995Z,11.57
2023-02-13T10:54:21.389Z,12.09
2023-02-13T10:57:00.216Z,12.43
2023-02-13T10:59:26.653Z,12.13
2023-02-13T11:01:57.857Z,12.60
2023-02-13T11:04:24.489Z,13.25
2023-02-13T11:06:53.824Z,12.23
2023-02-13T11:09:20.536Z,13.34
2023-02-13T11:11:47.311Z,12.01
2023-02-13T11:14:13.738Z,12.90
2023-02-13T11:16:43.200Z,13.34
2023-02-13T11:19:28.605Z,13.34
2023-02-13T11:21:57.634Z,13.43
2023-02-13T11:24:25.218Z,13.47
2023-02-13T11:26:58.462Z,13.09
2023-02-13T11:29:26.942Z,13.61
2023-02-13T11:32:12.661Z,14.19
2023-02-13T11:34:39.293Z,13.42
2023-02-13T11:37:14.674Z,12.53
2023-02-13T11:39:41.689Z,14.00
2023-02-13T11:42:28.009Z,13.75
2023-02-13T11:45:08.438Z,14.19
2023-02-13T11:47:37.165Z,14.01
2023-02-13T11:50:04.963Z,13.49
2023-02-13T11:52:32.944Z,13.95
2023-02-13T11:55:00.212Z,13.88
2023-02-13T11:57:31.196Z,13.81
2023-02-13T11:59:58.411Z,14.34
2023-02-13T12:02:46.229Z,14.32
2023-02-13T12:05:12.736Z,14.15
2023-02-13T12:07:39.712Z,14.19
2023-02-13T12:10:17.956Z,13.94
2023-02-13T12:13:03.233Z,14.08
2023-02-13T12:15:33.820Z,13.63
2023-02-13T12:18:09.185Z,14.32
2023-02-13T12:20:41.177Z,14.84
2023-02-13T12:23:12.536Z,14.08
2023-02-13T12:25:42.091Z,14.19
2023-02-13T12:28:11.834Z,14.77
2023-02-13T12:30:38.346Z,14.60
2023-02-13T12:33:17.102Z,14.57
2023-02-13T12:35:58.860Z,14.69
2023-02-13T12:38:40.675Z,14.68
2023-02-13T12:41:21.517Z,13.96
2023-02-13T12:44:00.193Z,14.52
2023-02-13T12:46:31.044Z,14.36
2023-02-13T12:49:20.204Z,14.34
2023-02-13T12:52:03.792Z,14.32
2023-02-13T12:54:44.549Z,14.37
2023-02-13T12:57:13.904Z,14.35
2023-02-13T12:59:49.546Z,14.16
2023-02-13T13:02:18.775Z,14.37
2023-02-13T13:04:57.348Z,14.52
2023-02-13T13:07:38.472Z,14.19
2023-02-13T13:10:32.829Z,14.68
2023-02-13T13:13:25.661Z,14.78
2023-02-13T13:15:55.347Z,14.69
2023-02-13T13:18:24.944Z,14.43
2023-02-13T13:20:52.066Z,14.91
2023-02-13T13:23:26.453Z,14.26
2023-02-13T13:25:57.475Z,13.95
2023-02-13T13:28:26.347Z,13.78
2023-02-13T13:30:53.512Z,14.59
2023-02-13T13:33:24.561Z,14.68
2023-02-13T13:35:50.980Z,14.46
2023-02-13T13:38:36.867Z,13.24
2023-02-13T13:41:23.586Z,13.76
2023-02-13T13:43:49.985Z,13.29
2023-02-13T13:46:31.752Z,14.44
2023-02-13T13:48:58.944Z,13.39
2023-02-13T13:51:25.595Z,13.58
2023-02-13T13:54:01.455Z,14.10
2023-02-13T13:56:47.856Z,13.77
2023-02-13T13:59:18.558Z,13.98
2023-02-13T14:01:45.161Z,13.69
2023-02-13T14:04:30.256Z,13.48
2023-02-13T14:06:59.773Z,13.84
2023-02-13T14:09:26.194Z,13.91
2023-02-13T14:11:53.360Z,14.21
2023-02-13T14:14:28.852Z,13.06
2023-02-13T14:16:56.349Z,14.00
2023-02-13T14:19:39.780Z,13.32
2023-02-13T14:22:29.401Z,13.76
2023-02-13T14:24:57.540Z,12.99
2023-02-13T14:27:25.684Z,14.08
2023-02-13T14:29:52.405Z,13.27
2023-02-13T14:32:24.931Z,12.90
2023-02-13T14:34:53.593Z,12.61
2023-02-13T14:37:31.968Z,12.94
2023-02-13T14:40:18.637Z,13.05
2023-02-13T14:42:47.307Z,12.90
2023-02-13T14:45:17.118Z,12.94
2023-02-13T14:47:53.489Z,12.95
2023-02-13T14:50:23.373Z,12.75
2023-02-13T14:52:50.689Z,13.05
2023-02-13T14:55:20.757Z,12.73
2023-02-13T14:57:49.239Z,11.95
2023-02-13T15:00:24.956Z,12.35
2023-02-13T15:02:58.635Z,12.89
2023-02-13T15:05:29.809Z,12.49
2023-02-13T15:08:05.307Z,12.28
2023-02-13T15:10:31.746Z,12.38
2023-02-13T15:12:59.309Z,11.99
2023-02-13T15:15:32.191Z,12.47
2023-02-13T15:18:18.889Z,12.24
2023-02-13T15:20:46.280Z,11.95
2023-02-13T15:23:24.559Z,12.06
2023-02-13T15:26:01.271Z,11.95
2023-02-13T15:28:28.030Z,11.23
2023-02-13T15:30:57.181Z,10.38
2023-02-13T15:33:25.168Z,10.42
2023-02-13T15:36:01.760Z,10.00
2023-02-13T15:38:33.393Z,9.53
2023-02-13T15:41:09.018Z,9.09
2023-02-13T15:43:37.543Z,9.03
2023-02-13T15:46:27.431Z,9.22
2023-02-13T15:48:54.640Z,8.31
2023-02-13T15:51:22.502Z,7.70
2023-02-13T15:53:52.984Z,7.40
2023-02-13T15:56:19.601Z,7.20
2023-02-13T15:58:46.528Z,7.15
2023-02-13T16:01:13.558Z,7.18
2023-02-13T16:03:40.585Z,7.21
2023-02-13T16:06:07.806Z,6.88
2023-02-13T16:08:36.066Z,6.84
2023-02-13T16:11:28.813Z,6.70
2023-02-13T16:13:58.286Z,6.27
2023-02-13T16:16:25.107Z,6.17
2023-02-13T16:18:52.249Z,6.24
2023-02-13T16:21:26.375Z,6.15
2023-02-13T16:23:56.892Z,5.78
2023-02-13T16:26:23.532Z,5.67
2023-02-13T16:28:50.068Z,5.63
2023-02-13T16:31:17.124Z,5.54
2023-02-13T16:33:43.757Z,5.50
2023-02-13T16:36:10.191Z,5.29
2023-02-13T16:38:38.057Z,5.30
2023-02-13T16:41:04.537Z,5.37
2023-02-13T16:43:35.190Z,5.01
2023-02-13T16:46:10.741Z,4.93
2023-02-13T16:48:37.560Z,4.93
2023-02-13T16:51:04.154Z,4.87
2023-02-13T16:53:31.952Z,4.87
2023-02-13T16:56:05.758Z,4.62
2023-02-13T16:58:32.222Z,4.62
2023-02-13T17:00:59.508Z,4.70
2023-02-13T17:03:26.208Z,4.87
2023-02-13T17:05:52.655Z,4.84
2023-02-13T17:08:19.179Z,4.67
2023-02-13T17:11:01.359Z,4.44
2023-02-13T17:13:28.005Z,4.36
2023-02-13T17:15:55.234Z,4.02
2023-02-13T17:18:21.915Z,3.97
2023-02-13T17:20:49.567Z,3.91
2023-02-13T17:23:22.383Z,4.14
2023-02-13T17:25:49.770Z,4.15
2023-02-13T17:28:18.621Z,4.14
2023-02-13T17:30:45.848Z,4.02
2023-02-13T17:33:14.731Z,3.66
2023-02-13T17:35:41.193Z,3.54
2023-02-13T17:38:09.514Z,3.40
2023-02-13T17:40:36.253Z,3.35
2023-02-13T17:43:02.777Z,3.44
2023-02-13T17:45:30.407Z,3.27
2023-02-13T17:47:59.567Z,3.06
2023-02-13T17:50:27.782Z,3.00
2023-02-13T17:52:54.713Z,2.87
2023-02-13T17:55:21.149Z,3.08
2023-02-13T17:57:48.165Z,3.04
2023-02-13T18:00:15.205Z,2.99
2023-02-13T18:02:42.652Z,2.95
2023-02-13T18:05:09.837Z,2.81
2023-02-13T18:07:36.365Z,2.89
2023-02-13T18:10:02.855Z,2.96
2023-02-13T18:12:29.377Z,2.87
2023-02-13T18:14:55.791Z,3.04
2023-02-13T18:17:22.386Z,3.00
2023-02-13T18:19:50.450Z,2.96
2023-02-13T18:22:16.986Z,3.09
2023-02-13T18:24:43.495Z,2.97
2023-02-13T18:27:11.310Z,2.77
2023-02-13T18:29:38.150Z,2.85
2023-02-13T18:32:05.738Z,2.82
2023-02-13T18:34:33.108Z,2.66
2023-02-13T18:36:59.667Z,2.79
2023-02-13T18:39:26.158Z,2.72
2023-02-13T18:41:52.695Z,2.75
2023-02-13T18:44:28.157Z,2.78
2023-02-13T18:46:55.298Z,2.63
2023-02-13T18:49:21.713Z,2.36
2023-02-13T18:51:48.156Z,2.33
2023-02-13T18:54:14.729Z,2.29
2023-02-13T18:56:41.469Z,2.18
2023-02-13T18:59:07.908Z,2.23
2023-02-13T19:01:35.424Z,2.20
2023-02-13T19:04:02.753Z,2.27
2023-02-13T19:06:29.544Z,2.08
2023-02-13T19:08:56.678Z,2.12
2023-02-13T19:11:24.768Z,2.00
2023-02-13T19:13:55.383Z,2.20
2023-02-13T19:16:22.568Z,2.32
2023-02-13T19:18:52.946Z,2.42
2023-02-13T19:21:20.416Z,2.32
2023-02-13T19:23:47.030Z,2.24
2023-02-13T19:26:15.319Z,2.21
2023-02-13T19:28:42.079Z,2.40
2023-02-13T19:31:13.762Z,2.21
2023-02-13T19:33:40.714Z,1.83
2023-02-13T19:36:09.550Z,2.19
2023-02-13T19:38:36.568Z,2.27
2023-02-13T19:41:06.620Z,1.95
2023-02-13T19:43:33.179Z,1.79
2023-02-13T19:46:05.021Z,1.92
2023-02-13T19:48:31.932Z,2.17
2023-02-13T19:50:58.667Z,2.02
2023-02-13T19:53:25.482Z,1.91
2023-02-13T19:55:58.151Z,1.94
2023-02-13T19:58:24.584Z,1.91
2023-02-13T20:00:51.128Z,1.81
2023-02-13T20:03:17.569Z,1.69
2023-02-13T20:05:44.163Z,1.73
2023-02-13T20:08:11.132Z,1.53
2023-02-13T20:10:37.777Z,1.45
2023-02-13T20:13:04.780Z,1.39
2023-02-13T20:15:32.416Z,1.45
2023-02-13T20:17:59.053Z,1.40
2023-02-13T20:20:27.737Z,1.40
2023-02-13T20:22:54.214Z,1.39
2023-02-13T20:25:22.100Z,1.37
2023-02-13T20:27:48.613Z,1.42
2023-02-13T20:30:15.622Z,1.34
2023-02-13T20:32:42.801Z,1.09
2023-02-13T20:35:09.539Z,0.99
2023-02-13T20:37:35.962Z,0.93
2023-02-13T20:40:02.459Z,1.07
2023-02-13T20:42:28.990Z,0.91
2023-02-13T20:44:55.441Z,0.85
2023-02-13T20:47:21.935Z,0.79
2023-02-13T20:49:48.418Z,0.71
2023-02-13T20:52:14.875Z,0.53
2023-02-13T20:54:41.480Z,0.69
2023-02-13T20:57:08.069Z,0.68
2023-02-13T20:59:34.511Z,0.60
2023-02-13T21:02:01.046Z,0.46
2023-02-13T21:04:29.079Z,0.37
2023-02-13T21:06:55.753Z,0.46
2023-02-13T21:09:22.199Z,0.58
2023-02-13T21:11:48.738Z,0.66
2023-02-13T21:14:15.207Z,0.53
2023-02-13T21:16:42.039Z,0.50
2023-02-13T21:19:11.749Z,0.42
2023-02-13T21:21:38.858Z,0.46
2023-02-13T21:24:08.369Z,0.69
2023-02-13T21:26:36.863Z,0.55
2023-02-13T21:29:03.419Z,0.55
2023-02-13T21:31:31.910Z,0.50
2023-02-13T21:34:05.467Z,0.50
2023-02-13T21:36:32.810Z,0.32
2023-02-13T21:38:59.978Z,0.38
2023-02-13T21:41:26.417Z,0.51
2023-02-13T21:43:52.951Z,0.53
2023-02-13T21:46:27.081Z,0.30
2023-02-13T21:48:54.483Z,0.33
2023-02-13T21:51:21.560Z,0.31
2023-02-13T21:53:48.739Z,0.31
2023-02-13T21:56:16.992Z,0.33
2023-02-13T21:58:44.242Z,0.23
2023-02-13T22:01:23.989Z,0.09
2023-02-13T22:03:52.325Z,0.05
2023-02-13T22:06:19.899Z,0.00
2023-02-13T22:08:46.686Z,0.02
2023-02-13T22:11:13.242Z,0.17
2023-02-13T22:13:39.760Z,0.20
2023-02-13T22:16:07.666Z,0.12
2023-02-13T22:18:35.995Z,0.35
2023-02-13T22:21:09.780Z,0.23
2023-02-13T22:23:36.982Z,0.06
2023-02-13T22:26:03.830Z,0.08
2023-02-13T22:28:30.508Z,0.00
2023-02-13T22:30:57.537Z,-0.17
2023-02-13T22:33:24.273Z,-0.36
2023-02-13T22:35:50.731Z,-0.14
2023-02-13T22:38:17.391Z,-0.16
2023-02-13T22:40:44.259Z,-0.15
2023-02-13T22:43:10.697Z,-0.27
2023-02-13T22:45:37.848Z,-0.22
2023-02-13T22:48:04.929Z,-0.41
2023-02-13T22:50:31.513Z,-0.35
2023-02-13T22:52:57.986Z,-0.44
2023-02-13T22:55:24.440Z,-0.32
2023-02-13T22:57:54.272Z,-0.19
2023-02-13T23:00:22.490Z,-0.39
2023-02-13T23:02:49.573Z,-0.62
2023-02-13T23:05:16.461Z,-0.39
2023-02-13T23:07:44.128Z,-0.46
2023-02-13T23:10:11.341Z,-0.45
2023-02-13T23:12:39.044Z,-0.30
2023-02-13T23:15:07.067Z,-0.27
2023-02-13T23:17:52.050Z,-0.42
2023-02-13T23:20:19.141Z,-0.45
2023-02-13T23:22:45.632Z,-0.28
2023-02-13T23:25:12.376Z,-0.41
2023-02-13T23:27:39.161Z,-0.77
2023-02-13T23:30:06.790Z,-0.66
2023-02-13T23:32:33.366Z,-0.75
2023-02-13T23:34:59.814Z,-0.93
2023-02-13T23:37:26.345Z,-0.71
2023-02-13T23:39:52.768Z,-0.62
2023-02-13T23:42:19.257Z,-0.78
2023-02-13T23:44:45.704Z,-0.53
2023-02-13T23:47:12.174Z,-0.74
2023-02-13T23:49:38.624Z,-0.71
2023-02-13T23:52:05.075Z,-0.73
2023-02-13T23:54:31.559Z,-0.94
2023-02-13T23:56:58.059Z,-0.84
2023-02-13T23:59:24.651Z,-0.88
